Time;durP1;ratioP1;P1;durP2;ratioP2;P2;SDS_P1;SDS_P2;PMS_P1;PMS_P2;Temp;Humidity;BMP_temperature;BMP_pressure;BME280_temperature;BME280_humidity;BME280_pressure;Samples;Min_cycle;Max_cycle;Signal;HPM_P1;HPM_P2
2021/07/04 00:00:19;;;;;;;16.33;14.63;;;19.50;99.90;;;;;;5013147;28;20298;-65
2021/07/04 00:02:45;;;;;;;15.47;13.47;;;19.50;99.90;;;;;;5012930;28;20262;-65
2021/07/04 00:05:14;;;;;;;17.00;15.20;;;19.50;99.90;;;;;;5013150;28;20596;-65
2021/07/04 00:07:41;;;;;;;17.20;14.73;;;19.50;99.90;;;;;;5012386;28;20183;-65
2021/07/04 00:10:09;;;;;;;16.57;14.87;;;19.50;99.90;;;;;;5012207;28;20667;-65
2021/07/04 00:12:35;;;;;;;19.67;16.07;;;19.40;99.90;;;;;;5012670;28;20180;-66
2021/07/04 00:15:00;;;;;;;17.87;15.93;;;19.40;99.90;;;;;;5012732;28;20668;-65
2021/07/04 00:17:26;;;;;;;17.97;16.20;;;19.40;99.90;;;;;;5012293;28;20234;-65
2021/07/04 00:19:51;;;;;;;20.13;15.70;;;19.30;99.90;;;;;;5012720;28;20199;-65
2021/07/04 00:22:17;;;;;;;17.80;15.97;;;19.20;99.90;;;;;;5011197;28;20207;-65
2021/07/04 00:24:42;;;;;;;21.50;17.87;;;19.20;99.90;;;;;;5012722;28;20255;-65
2021/07/04 00:27:08;;;;;;;20.10;17.53;;;19.10;99.90;;;;;;5012224;28;20196;-65
2021/07/04 00:29:34;;;;;;;21.60;17.93;;;19.00;99.90;;;;;;5012475;28;20215;-65
2021/07/04 00:31:59;;;;;;;19.40;17.23;;;18.90;99.90;;;;;;5012459;28;20529;-65
2021/07/04 00:34:25;;;;;;;22.23;18.37;;;18.90;99.90;;;;;;5012491;28;20185;-65
2021/07/04 00:36:50;;;;;;;19.77;17.63;;;18.90;99.90;;;;;;5012156;28;20180;-65
2021/07/04 00:39:16;;;;;;;19.07;16.70;;;18.90;99.90;;;;;;5012315;28;20207;-66
2021/07/04 00:41:41;;;;;;;20.17;17.23;;;18.90;99.90;;;;;;5011979;28;20212;-66
2021/07/04 00:44:07;;;;;;;21.23;18.93;;;18.90;99.90;;;;;;5012535;28;20168;-66
2021/07/04 00:46:33;;;;;;;22.77;18.73;;;18.90;99.90;;;;;;5012040;28;20188;-65
2021/07/04 00:48:59;;;;;;;22.57;19.47;;;19.00;99.90;;;;;;5012363;28;20165;-65
2021/07/04 00:51:25;;;;;;;20.63;17.53;;;19.00;99.90;;;;;;5012449;28;20196;-66
2021/07/04 00:53:51;;;;;;;21.73;19.43;;;18.90;99.90;;;;;;5011795;28;20164;-65
2021/07/04 00:56:17;;;;;;;24.07;18.90;;;18.90;99.90;;;;;;5011847;28;20184;-65
2021/07/04 00:58:43;;;;;;;21.30;19.00;;;18.90;99.90;;;;;;5012111;28;20184;-65
2021/07/04 01:01:08;;;;;;;22.17;19.07;;;18.90;99.90;;;;;;5012625;28;20207;-65
2021/07/04 01:03:34;;;;;;;26.03;19.90;;;18.90;99.90;;;;;;5016272;28;20168;-66
2021/07/04 01:06:00;;;;;;;23.90;21.00;;;19.00;99.90;;;;;;5022855;22;20215;-65
2021/07/04 01:08:26;;;;;;;24.43;19.80;;;19.00;99.90;;;;;;5012137;28;20254;-66
2021/07/04 01:10:51;;;;;;;23.90;18.97;;;19.00;99.90;;;;;;5012035;28;20582;-65
2021/07/04 01:13:17;;;;;;;24.67;18.43;;;19.00;99.90;;;;;;5011274;28;20192;-65
2021/07/04 01:15:45;;;;;;;21.70;19.10;;;19.00;99.90;;;;;;5011588;28;20250;-65
2021/07/04 01:18:11;;;;;;;21.60;19.03;;;19.00;99.90;;;;;;5011744;28;20657;-65
2021/07/04 01:20:38;;;;;;;22.83;18.30;;;18.90;99.90;;;;;;5011643;28;20222;-65
2021/07/04 01:23:15;;;;;;;25.17;19.60;;;18.80;99.90;;;;;;5011297;28;20172;-65
2021/07/04 01:25:49;;;;;;;21.20;18.33;;;18.80;99.90;;;;;;5011451;28;20198;-65
2021/07/04 01:28:18;;;;;;;23.27;18.90;;;18.70;99.90;;;;;;5011496;28;20171;-65
2021/07/04 01:30:47;;;;;;;24.00;20.67;;;18.70;99.90;;;;;;5011655;28;20172;-65
2021/07/04 01:33:13;;;;;;;25.53;22.20;;;18.70;99.90;;;;;;5011618;28;20187;-65
2021/07/04 01:35:39;;;;;;;29.40;22.57;;;18.60;99.90;;;;;;5011412;28;20558;-65
2021/07/04 01:38:05;;;;;;;28.20;21.83;;;18.60;99.90;;;;;;5011537;28;20187;-65
2021/07/04 01:40:31;;;;;;;28.10;22.30;;;18.50;99.90;;;;;;5011602;28;20179;-65
2021/07/04 01:42:57;;;;;;;27.07;20.73;;;18.50;99.90;;;;;;5011612;28;20551;-64
2021/07/04 01:45:23;;;;;;;21.80;19.13;;;18.50;99.90;;;;;;5011555;28;20172;-65
2021/07/04 01:47:50;;;;;;;26.90;20.20;;;18.50;99.90;;;;;;5011282;28;20215;-65
2021/07/04 01:50:20;;;;;;;24.80;21.00;;;18.50;99.90;;;;;;5011557;28;20195;-65
2021/07/04 01:52:46;;;;;;;26.37;20.63;;;18.50;99.90;;;;;;5011599;28;20235;-65
2021/07/04 01:55:13;;;;;;;22.67;19.67;;;18.50;99.90;;;;;;5010657;28;20172;-65
2021/07/04 01:57:39;;;;;;;23.73;20.23;;;18.50;99.90;;;;;;5011024;28;20267;-65
2021/07/04 02:00:16;;;;;;;24.37;18.70;;;18.60;99.90;;;;;;5011693;28;20263;-65
2021/07/04 02:02:44;;;;;;;24.70;19.53;;;18.60;99.90;;;;;;5011355;28;20226;-65
2021/07/04 02:05:10;;;;;;;22.33;18.73;;;18.60;99.90;;;;;;5011467;28;20208;-65
2021/07/04 02:07:36;;;;;;;20.43;16.60;;;18.60;99.90;;;;;;5010976;28;20200;-65
2021/07/04 02:10:06;;;;;;;19.57;15.10;;;18.60;99.90;;;;;;5011339;28;20176;-66
2021/07/04 02:12:32;;;;;;;18.23;16.23;;;18.50;99.90;;;;;;5011407;28;20176;-65
2021/07/04 02:14:58;;;;;;;18.17;16.13;;;18.50;99.90;;;;;;5011335;28;20180;-65
2021/07/04 02:17:23;;;;;;;19.70;16.40;;;18.50;99.90;;;;;;5010998;28;20555;-66
2021/07/04 02:19:50;;;;;;;18.43;15.43;;;18.40;99.90;;;;;;5011008;28;20188;-65
2021/07/04 02:22:16;;;;;;;19.03;15.97;;;18.40;99.90;;;;;;5010090;28;20203;-65
2021/07/04 02:24:41;;;;;;;16.93;15.13;;;18.30;99.90;;;;;;5011112;28;20231;-65
2021/07/04 02:27:07;;;;;;;17.33;14.63;;;18.30;99.90;;;;;;5011039;28;20249;-66
2021/07/04 02:29:33;;;;;;;17.40;15.10;;;18.30;99.90;;;;;;5010926;28;20546;-66
2021/07/04 02:31:59;;;;;;;16.23;14.47;;;18.30;99.90;;;;;;5011118;28;20199;-65
2021/07/04 02:34:28;;;;;;;17.03;15.23;;;18.20;99.90;;;;;;5013493;28;20251;-65
2021/07/04 02:36:54;;;;;;;16.07;14.23;;;18.20;99.90;;;;;;5014283;28;20204;-66
2021/07/04 02:39:19;;;;;;;17.90;16.00;;;18.10;99.90;;;;;;5014532;28;20540;-65
2021/07/04 02:41:45;;;;;;;19.60;15.40;;;18.10;99.90;;;;;;5014454;28;20301;-65
2021/07/04 02:44:11;;;;;;;18.70;15.83;;;18.10;99.90;;;;;;5014680;28;20661;-65
2021/07/04 02:46:37;;;;;;;16.67;14.87;;;18.10;99.90;;;;;;5014118;28;20200;-66
2021/07/04 02:49:06;;;;;;;16.37;14.70;;;18.00;99.90;;;;;;5014534;28;20179;-65
2021/07/04 02:51:32;;;;;;;18.07;16.17;;;18.00;99.90;;;;;;5013135;28;20545;-65
2021/07/04 02:53:58;;;;;;;18.47;15.73;;;18.00;99.90;;;;;;5013543;28;20271;-66
2021/07/04 02:56:23;;;;;;;21.57;15.77;;;17.90;99.90;;;;;;5014134;28;20192;-66
2021/07/04 02:58:49;;;;;;;21.07;17.20;;;17.90;99.90;;;;;;5014165;28;20226;-65
2021/07/04 03:01:15;;;;;;;20.17;16.63;;;17.80;99.90;;;;;;5014163;28;20200;-66
2021/07/04 03:03:40;;;;;;;20.23;16.43;;;17.80;99.90;;;;;;5014259;28;20227;-65
2021/07/04 03:06:06;;;;;;;19.57;17.37;;;17.80;99.90;;;;;;5013746;28;20296;-66
2021/07/04 03:08:32;;;;;;;22.80;18.80;;;17.80;99.90;;;;;;5014139;28;20179;-65
2021/07/04 03:10:58;;;;;;;19.30;16.70;;;17.80;99.90;;;;;;5014034;28;20238;-65
2021/07/04 03:13:23;;;;;;;21.93;17.97;;;17.90;99.90;;;;;;5014059;28;20180;-65
2021/07/04 03:15:49;;;;;;;20.37;17.53;;;17.90;99.90;;;;;;5013459;28;20338;-65
2021/07/04 03:18:15;;;;;;;18.87;16.83;;;17.90;99.90;;;;;;5013880;28;20183;-65
2021/07/04 03:20:40;;;;;;;20.77;18.57;;;18.00;99.90;;;;;;5013728;28;20180;-65
2021/07/04 03:23:06;;;;;;;25.90;19.47;;;18.00;99.90;;;;;;5013891;28;20176;-65
2021/07/04 03:25:32;;;;;;;22.40;18.50;;;18.10;99.90;;;;;;5013513;28;20203;-65
2021/07/04 03:27:58;;;;;;;23.40;19.50;;;18.20;99.90;;;;;;5013502;28;20172;-65
2021/07/04 03:30:23;;;;;;;21.13;18.37;;;18.20;99.90;;;;;;5013652;28;20192;-66
2021/07/04 03:32:50;;;;;;;20.17;17.33;;;18.30;99.90;;;;;;5013717;28;20648;-65
2021/07/04 03:35:17;;;;;;;26.57;20.13;;;18.30;99.90;;;;;;5013484;28;20200;-65
2021/07/04 03:37:43;;;;;;;23.00;19.53;;;18.40;99.90;;;;;;5013338;28;20575;-66
2021/07/04 03:40:12;;;;;;;25.27;20.47;;;18.40;99.90;;;;;;5013579;28;20242;-65
2021/07/04 03:42:38;;;;;;;23.00;20.57;;;18.40;99.90;;;;;;5013542;28;20207;-65
2021/07/04 03:45:05;;;;;;;21.93;18.53;;;18.40;99.90;;;;;;5013360;28;20683;-65
2021/07/04 03:47:31;;;;;;;21.53;18.50;;;18.40;99.90;;;;;;5013112;28;20566;-66
2021/07/04 03:49:57;;;;;;;23.67;19.60;;;18.50;99.90;;;;;;5012898;28;20187;-66
2021/07/04 03:52:23;;;;;;;23.13;19.40;;;18.50;99.90;;;;;;5013321;28;20254;-65
2021/07/04 03:54:48;;;;;;;25.17;19.67;;;18.50;99.90;;;;;;5012108;28;20171;-65
2021/07/04 03:57:23;;;;;;;22.57;19.50;;;18.60;99.90;;;;;;5012982;28;20696;-65
2021/07/04 03:59:58;;;;;;;21.23;18.87;;;18.60;99.90;;;;;;5013296;28;20290;-65
2021/07/04 04:02:24;;;;;;;27.33;19.83;;;18.60;99.90;;;;;;5013109;28;20204;-66
2021/07/04 04:04:54;;;;;;;21.73;18.20;;;18.70;99.90;;;;;;5012977;28;20636;-65
2021/07/04 04:07:20;;;;;;;25.97;17.63;;;18.70;99.90;;;;;;4993016;28;20210;-66
2021/07/04 04:09:48;;;;;;;25.70;17.57;;;18.70;99.90;;;;;;4993516;28;20252;-65
2021/07/04 04:12:14;;;;;;;20.20;16.83;;;18.70;99.90;;;;;;5012304;28;20219;-65
2021/07/04 04:14:40;;;;;;;23.10;16.93;;;18.70;99.90;;;;;;5013085;28;20176;-65
2021/07/04 04:17:06;;;;;;;19.57;16.63;;;18.70;99.90;;;;;;5012302;28;20677;-65
2021/07/04 04:19:32;;;;;;;18.70;16.70;;;18.70;99.90;;;;;;5012754;28;20172;-65
2021/07/04 04:21:57;;;;;;;18.10;16.20;;;18.80;99.90;;;;;;5012667;28;20571;-65
2021/07/04 04:24:23;;;;;;;17.77;15.80;;;18.80;99.90;;;;;;5012552;28;20187;-65
2021/07/04 04:26:48;;;;;;;17.00;15.50;;;18.90;99.90;;;;;;5012293;28;20207;-65
2021/07/04 04:29:14;;;;;;;18.77;15.73;;;19.00;99.90;;;;;;5012463;28;20255;-66
2021/07/04 04:31:40;;;;;;;18.57;15.57;;;19.00;99.90;;;;;;5012235;28;20175;-65
2021/07/04 04:34:06;;;;;;;15.80;14.20;;;19.10;99.90;;;;;;5012551;28;20168;-65
2021/07/04 04:36:31;;;;;;;16.77;15.07;;;19.10;99.90;;;;;;5012198;28;20199;-65
2021/07/04 04:38:57;;;;;;;15.77;14.23;;;19.10;99.90;;;;;;5012391;28;20207;-65
2021/07/04 04:41:22;;;;;;;15.63;14.10;;;19.10;99.90;;;;;;5012146;28;20227;-65
2021/07/04 04:43:48;;;;;;;18.43;13.97;;;19.10;99.90;;;;;;5012475;28;20176;-65
2021/07/04 04:46:14;;;;;;;15.23;12.83;;;19.10;99.90;;;;;;5012005;28;20319;-65
2021/07/04 04:48:39;;;;;;;14.73;13.37;;;19.10;99.90;;;;;;5012348;28;20207;-65
2021/07/04 04:51:06;;;;;;;15.13;13.73;;;19.10;99.90;;;;;;5012198;28;20699;-65
2021/07/04 04:53:32;;;;;;;14.73;13.37;;;19.00;99.90;;;;;;5011608;28;20612;-66
2021/07/04 04:55:58;;;;;;;14.70;13.40;;;19.00;99.90;;;;;;5011242;28;20271;-66
2021/07/04 04:58:23;;;;;;;15.77;14.27;;;19.00;99.90;;;;;;5010945;28;20629;-66
2021/07/04 05:00:49;;;;;;;15.23;13.63;;;18.90;99.90;;;;;;5011652;28;20254;-66
2021/07/04 05:03:15;;;;;;;14.40;12.57;;;18.80;99.90;;;;;;5012261;28;20176;-65
2021/07/04 05:05:41;;;;;;;14.33;12.93;;;18.70;99.90;;;;;;5011595;28;20657;-65
2021/07/04 05:08:06;;;;;;;13.70;12.40;;;18.60;99.90;;;;;;5013274;28;20199;-65
2021/07/04 05:10:32;;;;;;;14.57;13.10;;;18.50;99.90;;;;;;5017933;28;20711;-65
2021/07/04 05:12:57;;;;;;;15.20;13.60;;;18.60;99.90;;;;;;5017187;28;20230;-65
2021/07/04 05:15:23;;;;;;;14.53;13.03;;;18.70;99.90;;;;;;5012590;28;20242;-66
2021/07/04 05:17:49;;;;;;;14.10;12.77;;;18.70;99.90;;;;;;5011598;28;20203;-65
2021/07/04 05:20:15;;;;;;;14.60;13.10;;;19.00;99.90;;;;;;5012085;28;20705;-65
2021/07/04 05:22:41;;;;;;;15.03;13.50;;;19.30;99.90;;;;;;5011545;28;20781;-65
2021/07/04 05:25:07;;;;;;;13.40;12.07;;;19.60;99.90;;;;;;5012069;28;20303;-66
2021/07/04 05:27:33;;;;;;;13.80;11.87;;;19.80;99.90;;;;;;5011278;28;20203;-65
2021/07/04 05:29:59;;;;;;;12.13;11.10;;;20.10;99.90;;;;;;5011496;28;20180;-65
2021/07/04 05:32:25;;;;;;;13.70;12.50;;;20.30;99.90;;;;;;5012026;28;20242;-65
2021/07/04 05:34:50;;;;;;;13.90;12.50;;;20.50;99.90;;;;;;5011601;28;20176;-65
2021/07/04 05:37:16;;;;;;;13.67;11.43;;;20.80;99.90;;;;;;5011461;28;20219;-65
2021/07/04 05:39:42;;;;;;;12.53;10.70;;;21.10;99.90;;;;;;5011612;28;20270;-66
2021/07/04 05:42:08;;;;;;;11.90;10.82;;;21.40;99.90;;;;;;5011777;28;20338;-65
2021/07/04 05:44:33;;;;;;;12.65;11.45;;;21.70;99.90;;;;;;5011284;28;20170;-65
2021/07/04 05:46:59;;;;;;;11.27;10.27;;;22.00;99.90;;;;;;5010377;28;20207;-66
2021/07/04 05:49:25;;;;;;;10.48;9.43;;;22.30;99.90;;;;;;5011615;28;20263;-65
2021/07/04 05:51:52;;;;;;;9.93;9.02;;;22.50;99.90;;;;;;5011228;28;20669;-66
2021/07/04 05:54:17;;;;;;;10.15;9.32;;;22.80;99.90;;;;;;5011801;28;20876;-65
2021/07/04 05:56:43;;;;;;;12.73;10.25;;;23.20;99.90;;;;;;5011057;28;20210;-65
2021/07/04 05:59:09;;;;;;;10.00;9.20;;;23.50;99.90;;;;;;5010469;28;20183;-65
2021/07/04 06:01:35;;;;;;;11.27;10.13;;;24.00;99.90;;;;;;5010940;28;20981;-65
2021/07/04 06:04:01;;;;;;;10.85;9.45;;;24.10;99.90;;;;;;5011677;28;20180;-65
2021/07/04 06:06:26;;;;;;;11.20;10.25;;;24.40;99.90;;;;;;5010845;28;20704;-66
2021/07/04 06:08:52;;;;;;;10.45;9.18;;;24.60;99.90;;;;;;5011839;28;20176;-66
2021/07/04 06:11:18;;;;;;;10.50;9.50;;;24.60;99.90;;;;;;5015024;28;20184;-66
2021/07/04 06:13:44;;;;;;;11.75;9.25;;;24.60;99.90;;;;;;5012023;28;20188;-66
2021/07/04 06:16:10;;;;;;;10.20;9.27;;;24.60;99.90;;;;;;5014637;28;20700;-65
2021/07/04 06:18:36;;;;;;;10.15;9.25;;;24.60;99.90;;;;;;5014836;28;20183;-66
2021/07/04 06:21:02;;;;;;;11.00;9.77;;;24.70;99.90;;;;;;5014784;28;20200;-66
2021/07/04 06:23:28;;;;;;;9.55;8.80;;;24.90;99.90;;;;;;5014932;28;20206;-66
2021/07/04 06:25:53;;;;;;;10.88;9.77;;;25.00;99.90;;;;;;5014293;28;20286;-66
2021/07/04 06:28:19;;;;;;;9.02;8.35;;;25.40;99.90;;;;;;5014826;28;20171;-65
2021/07/04 06:30:45;;;;;;;8.98;8.27;;;25.70;99.90;;;;;;5014476;28;20654;-65
2021/07/04 06:33:11;;;;;;;9.18;8.45;;;26.20;99.90;;;;;;5014889;28;20202;-65
2021/07/04 06:35:37;;;;;;;8.52;7.88;;;26.50;99.90;;;;;;5014182;28;20199;-64
2021/07/04 06:38:03;;;;;;;8.43;7.72;;;26.70;99.90;;;;;;5014652;28;20564;-65
2021/07/04 06:40:29;;;;;;;8.95;8.15;;;27.00;99.90;;;;;;5014415;28;20227;-65
2021/07/04 06:42:54;;;;;;;8.95;8.25;;;27.50;99.90;;;;;;5014608;28;20188;-65
2021/07/04 06:45:20;;;;;;;9.25;8.40;;;27.10;99.90;;;;;;5014396;28;20168;-65
2021/07/04 06:47:48;;;;;;;8.63;7.93;;;26.90;99.90;;;;;;5014043;28;20176;-65
2021/07/04 06:50:16;;;;;;;8.95;8.15;;;26.50;99.90;;;;;;5014203;28;20580;-65
2021/07/04 06:52:42;;;;;;;9.20;8.43;;;26.20;99.90;;;;;;5022138;28;20172;-66
2021/07/04 06:55:08;;;;;;;10.10;8.13;;;26.10;99.90;;;;;;5034215;28;20206;-69
2021/07/04 06:57:34;;;;;;;10.20;9.25;;;25.70;99.90;;;;;;5023773;28;20218;-65
2021/07/04 07:00:11;;;;;;;11.27;10.38;;;25.10;99.90;;;;;;5014279;28;20172;-66
2021/07/04 07:02:38;;;;;;;10.10;9.02;;;24.90;99.90;;;;;;5013816;28;20563;-65
2021/07/04 07:05:08;;;;;;;10.32;9.00;;;24.90;99.90;;;;;;5014416;28;20227;-65
2021/07/04 07:07:34;;;;;;;9.68;8.85;;;24.70;99.90;;;;;;5013387;28;20591;-65
2021/07/04 07:10:00;;;;;;;10.63;9.60;;;24.40;99.90;;;;;;5014154;28;20229;-65
2021/07/04 07:12:25;;;;;;;9.77;8.88;;;24.10;99.90;;;;;;5013925;28;20319;-65
2021/07/04 07:14:51;;;;;;;9.75;8.85;;;23.90;99.90;;;;;;5013841;28;20204;-65
2021/07/04 07:17:17;;;;;;;10.25;8.32;;;23.80;99.90;;;;;;5013385;28;20227;-66
2021/07/04 07:19:43;;;;;;;11.10;8.90;;;23.90;99.90;;;;;;5013144;28;20599;-65
2021/07/04 07:22:09;;;;;;;10.27;9.48;;;24.20;99.90;;;;;;5013518;28;20681;-65
2021/07/04 07:24:35;;;;;;;9.45;8.65;;;24.50;99.90;;;;;;5013743;28;20179;-65
2021/07/04 07:27:01;;;;;;;9.20;8.50;;;24.80;99.90;;;;;;5013065;28;20247;-65
2021/07/04 07:29:26;;;;;;;11.32;10.18;;;25.10;99.90;;;;;;5013783;28;20214;-65
2021/07/04 07:31:52;;;;;;;11.38;10.05;;;25.50;99.90;;;;;;5013294;28;20188;-65
2021/07/04 07:34:18;;;;;;;9.27;8.48;;;25.60;99.90;;;;;;5013781;28;20181;-65
2021/07/04 07:36:43;;;;;;;9.23;8.43;;;25.90;99.90;;;;;;5012944;28;20737;-65
2021/07/04 07:39:09;;;;;;;8.77;7.97;;;26.20;99.90;;;;;;5013564;28;20203;-65
2021/07/04 07:41:35;;;;;;;9.80;9.00;;;26.70;99.90;;;;;;5013121;28;20214;-65
2021/07/04 07:44:00;;;;;;;9.30;8.43;;;27.10;99.90;;;;;;5013312;28;20187;-65
2021/07/04 07:46:26;;;;;;;9.32;8.55;;;27.30;99.90;;;;;;5012154;28;20243;-65
2021/07/04 07:48:52;;;;;;;9.70;8.90;;;27.60;99.90;;;;;;5013163;28;20176;-65
2021/07/04 07:51:18;;;;;;;10.60;9.60;;;28.10;99.90;;;;;;5013174;28;20180;-65
2021/07/04 07:53:44;;;;;;;9.43;8.63;;;28.70;99.90;;;;;;5013358;28;20222;-65
2021/07/04 07:56:10;;;;;;;10.30;9.55;;;29.00;99.90;;;;;;5012737;28;20587;-65
2021/07/04 07:58:35;;;;;;;9.23;8.38;;;29.50;99.90;;;;;;5012306;28;20179;-65
2021/07/04 08:01:02;;;;;;;9.15;8.45;;;29.90;99.90;;;;;;5012833;28;20612;-65
2021/07/04 08:03:27;;;;;;;9.63;8.70;;;30.60;99.90;;;;;;5012970;28;20179;-65
2021/07/04 08:05:53;;;;;;;8.27;7.65;;;31.40;99.90;;;;;;5011895;28;20584;-66
2021/07/04 08:08:19;;;;;;;7.70;7.10;;;32.30;99.90;;;;;;5013417;28;20176;-66
2021/07/04 08:10:44;;;;;;;8.70;7.13;;;33.10;99.90;;;;;;5011049;28;20191;-66
2021/07/04 08:13:10;;;;;;;8.38;7.68;;;33.50;99.90;;;;;;5012813;28;20195;-66
2021/07/04 08:15:35;;;;;;;9.18;8.48;;;33.50;99.90;;;;;;5012577;28;20554;-65
2021/07/04 08:18:01;;;;;;;9.48;8.68;;;33.30;99.90;;;;;;5012560;28;20172;-65
2021/07/04 08:20:27;;;;;;;8.38;7.57;;;32.90;99.90;;;;;;5012560;28;20184;-65
2021/07/04 08:22:53;;;;;;;9.82;7.90;;;32.20;99.90;;;;;;5012582;28;20683;-65
2021/07/04 08:25:18;;;;;;;9.18;8.38;;;31.40;99.90;;;;;;5012704;28;20177;-65
2021/07/04 08:27:44;;;;;;;8.45;7.72;;;31.00;99.90;;;;;;5012146;28;20179;-65
2021/07/04 08:30:12;;;;;;;7.53;7.00;;;30.60;99.90;;;;;;5012324;28;20262;-65
2021/07/04 08:32:37;;;;;;;8.25;7.45;;;30.30;99.90;;;;;;5011903;28;20184;-65
2021/07/04 08:35:05;;;;;;;8.05;7.25;;;30.50;99.90;;;;;;5012293;28;20319;-65
2021/07/04 08:37:30;;;;;;;7.88;7.28;;;31.00;99.90;;;;;;5012168;28;20619;-65
2021/07/04 08:39:56;;;;;;;9.52;7.85;;;31.80;99.90;;;;;;5012024;28;20219;-65
2021/07/04 08:42:22;;;;;;;8.48;7.68;;;32.00;99.90;;;;;;5012520;28;20204;-65
2021/07/04 08:44:51;;;;;;;8.68;7.95;;;32.20;99.90;;;;;;5012329;28;20268;-65
2021/07/04 08:47:18;;;;;;;8.80;8.00;;;31.90;99.90;;;;;;5012177;28;20219;-65
2021/07/04 08:49:45;;;;;;;7.68;7.03;;;31.90;99.90;;;;;;5011877;28;20600;-65
2021/07/04 08:52:11;;;;;;;7.80;7.20;;;31.70;99.90;;;;;;5012462;28;20180;-65
2021/07/04 08:54:36;;;;;;;8.50;7.85;;;31.70;99.90;;;;;;5012014;28;20184;-65
2021/07/04 08:57:08;;;;;;;8.15;7.53;;;31.60;99.90;;;;;;5011949;28;20711;-65
2021/07/04 08:59:40;;;;;;;7.65;6.90;;;31.50;99.90;;;;;;5012038;28;20184;-65
2021/07/04 09:02:11;;;;;;;8.70;7.97;;;31.20;99.90;;;;;;5012154;28;20569;-65
2021/07/04 09:04:38;;;;;;;9.27;8.60;;;31.20;99.90;;;;;;5011950;28;20168;-65
2021/07/04 09:07:05;;;;;;;8.18;7.32;;;31.40;99.90;;;;;;5011727;28;20585;-65
2021/07/04 09:09:33;;;;;;;8.23;7.50;;;31.30;99.90;;;;;;5011799;28;20176;-65
2021/07/04 09:12:10;;;;;;;8.27;7.47;;;30.50;99.90;;;;;;5011922;28;20227;-65
2021/07/04 09:14:42;;;;;;;10.70;9.90;;;30.40;99.90;;;;;;5011948;28;20176;-65
2021/07/04 09:17:10;;;;;;;7.60;7.00;;;30.70;99.90;;;;;;5011716;28;20228;-65
2021/07/04 09:19:40;;;;;;;7.07;6.47;;;30.90;99.90;;;;;;5011719;28;20172;-65
2021/07/04 09:22:08;;;;;;;8.25;7.45;;;30.80;99.90;;;;;;5011810;28;20226;-65
2021/07/04 09:24:42;;;;;;;7.00;6.40;;;31.10;99.90;;;;;;5011576;28;20199;-65
2021/07/04 09:27:11;;;;;;;7.15;6.55;;;31.70;99.90;;;;;;5011687;28;20271;-65
2021/07/04 09:29:48;;;;;;;6.80;6.30;;;32.40;99.90;;;;;;5011519;28;20198;-65
2021/07/04 09:32:25;;;;;;;6.97;6.47;;;33.10;99.90;;;;;;5012037;28;20207;-65
2021/07/04 09:35:02;;;;;;;6.95;6.32;;;33.60;99.90;;;;;;5011606;28;20183;-65
2021/07/04 09:37:29;;;;;;;6.43;5.93;;;34.30;99.90;;;;;;5011563;28;20192;-65
2021/07/04 09:40:12;;;;;;;7.47;6.85;;;34.20;99.90;;;;;;5011290;28;20172;-65
2021/07/04 09:43:08;;;;;;;7.60;7.00;;;33.70;99.90;;;;;;5013021;28;20215;-65
2021/07/04 09:45:50;;;;;;;6.78;6.18;;;33.30;99.90;;;;;;5015271;28;20180;-65
2021/07/04 09:48:19;;;;;;;5.82;5.32;;;33.20;99.90;;;;;;5015830;28;20194;-65
2021/07/04 09:50:48;;;;;;;6.70;6.20;;;33.40;99.90;;;;;;5015286;28;20598;-65
2021/07/04 09:53:15;;;;;;;6.47;5.88;;;32.80;99.90;;;;;;5015671;28;20172;-65
2021/07/04 09:55:41;;;;;;;7.40;6.88;;;32.50;99.90;;;;;;5014776;28;20223;-65
2021/07/04 09:58:12;;;;;;;8.10;7.53;;;32.10;99.90;;;;;;5015509;28;20315;-65
2021/07/04 10:00:43;;;;;;;6.45;5.95;;;31.90;99.90;;;;;;5023659;22;20219;-65
2021/07/04 10:03:20;;;;;;;7.28;6.68;;;32.20;99.90;;;;;;5015454;28;20669;-65
2021/07/04 10:05:53;;;;;;;7.05;6.35;;;32.60;99.90;;;;;;5015378;28;20230;-65
2021/07/04 10:08:36;;;;;;;6.28;5.88;;;32.80;99.90;;;;;;5015459;28;20168;-65
2021/07/04 10:11:13;;;;;;;6.75;6.25;;;33.00;99.90;;;;;;5015268;28;20192;-65
2021/07/04 10:13:45;;;;;;;7.20;6.70;;;33.20;99.90;;;;;;5014360;28;20203;-65
2021/07/04 10:16:15;;;;;;;8.02;7.38;;;32.70;99.90;;;;;;5014941;28;20533;-65
2021/07/04 10:18:44;;;;;;;7.38;6.65;;;31.90;99.90;;;;;;5014899;28;20266;-65
2021/07/04 10:21:09;;;;;;;7.50;7.00;;;31.50;99.90;;;;;;5013675;28;20570;-65
2021/07/04 10:23:36;;;;;;;6.88;6.38;;;31.00;99.90;;;;;;5014810;28;20187;-65
2021/07/04 10:26:03;;;;;;;7.40;6.90;;;30.50;99.90;;;;;;5013429;28;20184;-65
2021/07/04 10:28:30;;;;;;;8.30;7.57;;;30.30;99.90;;;;;;5015012;28;20514;-65
2021/07/04 10:30:57;;;;;;;7.22;6.63;;;30.00;99.90;;;;;;5014843;28;20185;-65
2021/07/04 10:33:32;;;;;;;7.55;7.05;;;29.60;99.90;;;;;;5015128;28;20247;-65
2021/07/04 10:36:05;;;;;;;8.73;6.97;;;29.30;99.90;;;;;;5014669;28;20174;-65
2021/07/04 10:38:54;;;;;;;7.50;7.03;;;28.70;99.90;;;;;;5014676;28;20633;-65
2021/07/04 10:41:31;;;;;;;7.00;6.50;;;28.00;99.90;;;;;;5014770;28;20196;-65
2021/07/04 10:44:11;;;;;;;6.68;6.18;;;27.50;99.90;;;;;;5014730;28;20223;-65
2021/07/04 10:46:43;;;;;;;8.55;8.02;;;27.50;99.90;;;;;;5014601;28;20574;-66
2021/07/04 10:49:13;;;;;;;8.10;7.55;;;27.70;99.90;;;;;;5014584;28;20188;-66
2021/07/04 10:52:16;;;;;;;7.50;7.00;;;28.10;99.90;;;;;;5014431;28;20192;-65
2021/07/04 10:54:44;;;;;;;7.70;7.10;;;28.60;99.90;;;;;;4992031;28;20184;-66
2021/07/04 10:57:21;;;;;;;8.15;7.55;;;28.70;99.90;;;;;;5010337;28;20231;-65
2021/07/04 10:59:51;;;;;;;8.98;8.20;;;28.60;99.90;;;;;;5014314;28;20569;-65
2021/07/04 11:02:41;;;;;;;9.40;8.50;;;28.20;99.90;;;;;;5014373;28;20204;-65
2021/07/04 11:05:16;;;;;;;8.60;8.00;;;27.50;99.90;;;;;;5014307;28;20542;-65
2021/07/04 11:07:54;;;;;;;10.02;9.23;;;26.90;99.90;;;;;;5013977;28;20179;-65
2021/07/04 11:10:24;;;;;;;8.63;7.93;;;26.40;99.90;;;;;;5014091;28;20192;-65
2021/07/04 11:12:52;;;;;;;8.48;7.80;;;26.30;99.90;;;;;;5013191;28;20590;-65
2021/07/04 11:15:20;;;;;;;9.43;8.73;;;26.50;99.90;;;;;;5014173;28;20175;-65
2021/07/04 11:18:04;;;;;;;7.95;7.30;;;26.90;99.90;;;;;;5013795;28;20540;-65
2021/07/04 11:20:53;;;;;;;7.05;6.60;;;27.30;99.90;;;;;;5013850;28;20257;-65
2021/07/04 11:23:23;;;;;;;6.97;6.57;;;27.80;99.90;;;;;;5012683;28;20259;-65
2021/07/04 11:26:08;;;;;;;7.40;6.90;;;28.20;99.90;;;;;;5012314;28;20557;-65
2021/07/04 11:28:35;;;;;;;6.78;6.35;;;28.40;99.90;;;;;;5014055;28;20226;-65
2021/07/04 11:31:05;;;;;;;7.28;6.78;;;28.70;99.90;;;;;;5013781;28;20196;-65
2021/07/04 11:33:42;;;;;;;6.97;6.47;;;28.70;99.90;;;;;;5014255;28;20168;-67
2021/07/04 11:36:17;;;;;;;8.43;7.82;;;28.80;99.90;;;;;;5013267;28;20183;-65
2021/07/04 11:38:45;;;;;;;8.15;7.65;;;28.80;99.90;;;;;;5027649;28;20178;-65
2021/07/04 11:41:17;;;;;;;10.07;9.52;;;28.70;99.90;;;;;;5021125;28;20486;-65
2021/07/04 11:43:43;;;;;;;8.27;7.78;;;28.70;99.90;;;;;;5033523;28;20168;-65
2021/07/04 11:46:12;;;;;;;7.88;7.38;;;28.70;99.90;;;;;;5015391;28;20544;-65
2021/07/04 11:48:46;;;;;;;6.47;6.18;;;28.50;99.90;;;;;;5013205;28;20665;-65
2021/07/04 11:51:51;;;;;;;6.03;5.53;;;28.30;99.90;;;;;;5013392;28;20247;-65
2021/07/04 11:54:19;;;;;;;6.15;5.68;;;28.10;99.90;;;;;;5013427;28;20184;-65
2021/07/04 11:56:49;;;;;;;6.55;6.05;;;28.00;99.90;;;;;;5011422;28;20180;-65
2021/07/04 11:59:27;;;;;;;6.78;6.03;;;28.10;99.90;;;;;;5013204;28;20164;-66
2021/07/04 12:02:04;;;;;;;6.70;6.30;;;28.20;99.90;;;;;;4993037;28;20573;-65
2021/07/04 12:04:31;;;;;;;6.93;6.53;;;28.30;99.90;;;;;;4995132;28;20199;-65
2021/07/04 12:06:59;;;;;;;6.30;5.28;;;28.50;99.90;;;;;;5012801;28;20396;-65
2021/07/04 12:09:39;;;;;;;5.38;5.07;;;28.50;99.90;;;;;;5012720;28;20172;-65
2021/07/04 12:12:14;;;;;;;5.53;5.22;;;28.30;99.90;;;;;;5012981;28;20198;-65
2021/07/04 12:14:40;;;;;;;5.95;5.45;;;28.30;99.90;;;;;;5012757;28;20171;-64
2021/07/04 12:17:25;;;;;;;5.50;5.13;;;28.20;99.90;;;;;;5012687;28;20320;-64
2021/07/04 12:20:00;;;;;;;5.50;5.20;;;28.10;99.90;;;;;;5012282;28;20871;-64
2021/07/04 12:22:31;;;;;;;5.60;5.30;;;27.80;99.90;;;;;;5012952;28;20216;-64
2021/07/04 12:24:59;;;;;;;5.65;5.35;;;27.90;99.90;;;;;;5012385;28;20871;-64
2021/07/04 12:27:52;;;;;;;7.32;6.70;;;27.90;99.90;;;;;;5012310;28;20179;-64
2021/07/04 12:30:29;;;;;;;6.65;6.15;;;27.80;99.90;;;;;;5012442;28;20689;-64
2021/07/04 12:33:09;;;;;;;4.93;4.63;;;27.60;99.90;;;;;;5012558;28;20226;-64
2021/07/04 12:35:34;;;;;;;6.13;5.68;;;27.30;99.90;;;;;;5012353;28;20188;-64
2021/07/04 12:38:04;;;;;;;6.75;6.22;;;26.20;99.90;;;;;;5012612;28;20168;-64
2021/07/04 12:40:50;;;;;;;5.85;5.45;;;24.90;99.90;;;;;;5012154;28;20200;-65